createdAt,value
2023-02-25T00:02:02.594Z,4.03
2023-02-25T00:04:30.169Z,3.89
2023-02-25T00:06:56.783Z,3.93
2023-02-25T00:09:23.455Z,3.85
2023-02-25T00:11:57.460Z,3.70
2023-02-25T00:14:24.082Z,3.90
2023-02-25T00:16:51.027Z,3.76
2023-02-25T00:19:20.058Z,3.76
2023-02-25T00:21:46.691Z,3.83
2023-02-25T00:24:17.177Z,3.84
2023-02-25T00:26:44.784Z,3.87
2023-02-25T00:29:11.395Z,3.87
2023-02-25T00:31:38.222Z,3.97
2023-02-25T00:34:04.988Z,3.88
2023-02-25T00:36:33.822Z,3.76
2023-02-25T00:39:00.524Z,4.09
2023-02-25T00:41:29.066Z,4.07
2023-02-25T00:44:01.161Z,4.18
2023-02-25T00:46:30.102Z,4.22
2023-02-25T00:48:57.598Z,4.21
2023-02-25T00:51:28.144Z,4.27
2023-02-25T00:53:56.465Z,4.26
2023-02-25T00:56:27.599Z,4.21
2023-02-25T00:58:56.574Z,4.22
2023-02-25T01:01:25.867Z,4.20
2023-02-25T01:03:55.620Z,4.03
2023-02-25T01:06:24.317Z,3.87
2023-02-25T01:08:53.958Z,4.19
2023-02-25T01:11:27.578Z,3.99
2023-02-25T01:13:55.041Z,4.24
2023-02-25T01:16:24.901Z,4.27
2023-02-25T01:18:53.571Z,4.23
2023-02-25T01:21:27.099Z,4.31
2023-02-25T01:24:00.451Z,4.33
2023-02-25T01:26:29.124Z,4.35
2023-02-25T01:28:56.254Z,3.80
2023-02-25T01:31:29.660Z,4.25
2023-02-25T01:34:02.028Z,4.34
2023-02-25T01:36:37.954Z,4.23
2023-02-25T01:39:09.776Z,4.19
2023-02-25T01:41:38.004Z,4.33
2023-02-25T01:44:06.338Z,4.32
2023-02-25T01:46:32.976Z,4.15
2023-02-25T01:49:03.829Z,4.20
2023-02-25T01:51:32.552Z,3.89
2023-02-25T01:54:02.739Z,4.07
2023-02-25T01:56:30.921Z,3.91
2023-02-25T01:59:02.358Z,3.99
2023-02-25T02:01:32.463Z,4.00
2023-02-25T02:03:59.090Z,4.05
2023-02-25T02:06:36.882Z,4.07
2023-02-25T02:09:07.218Z,3.89
2023-02-25T02:11:37.150Z,4.05
2023-02-25T02:14:08.141Z,4.07
2023-02-25T02:16:56.822Z,4.05
2023-02-25T02:19:38.699Z,4.13
2023-02-25T02:22:13.442Z,4.15
2023-02-25T02:24:45.362Z,4.17
2023-02-25T02:27:22.374Z,4.19
2023-02-25T02:30:32.722Z,4.22
2023-02-25T02:33:34.557Z,4.14
2023-02-25T02:36:20.223Z,4.22
2023-02-25T02:39:25.240Z,4.27
2023-02-25T02:41:51.797Z,4.31
2023-02-25T02:44:37.358Z,4.31
2023-02-25T02:47:09.007Z,4.24
2023-02-25T02:49:41.581Z,4.38
2023-02-25T02:52:16.931Z,4.37
2023-02-25T02:54:48.892Z,4.19
2023-02-25T02:57:17.224Z,4.19
2023-02-25T02:59:51.917Z,4.34
2023-02-25T03:02:27.101Z,4.21
2023-02-25T03:04:59.660Z,4.29
2023-02-25T03:07:27.344Z,4.28
2023-02-25T03:09:59.961Z,4.22
2023-02-25T03:12:26.542Z,4.11
2023-02-25T03:14:55.483Z,4.10
2023-02-25T03:17:28.241Z,3.91
2023-02-25T03:20:04.330Z,4.16
2023-02-25T03:22:39.394Z,4.26
2023-02-25T03:25:14.649Z,4.16
2023-02-25T03:27:46.980Z,4.16
2023-02-25T03:30:22.825Z,4.10
2023-02-25T03:32:59.219Z,4.03
2023-02-25T03:35:28.140Z,3.88
2023-02-25T03:38:04.573Z,3.74
2023-02-25T03:40:32.814Z,3.99
2023-02-25T03:43:09.338Z,3.99
2023-02-25T03:45:38.987Z,3.97
2023-02-25T03:48:07.756Z,3.84
2023-02-25T03:50:46.667Z,3.71
2023-02-25T03:53:15.894Z,3.83
2023-02-25T03:55:44.806Z,3.80
2023-02-25T03:58:11.822Z,3.95
2023-02-25T04:00:45.968Z,3.77
2023-02-25T04:03:14.795Z,4.07
2023-02-25T04:05:43.628Z,3.97
2023-02-25T04:08:16.138Z,4.05
2023-02-25T04:10:46.520Z,4.17
2023-02-25T04:13:15.165Z,4.19
2023-02-25T04:15:47.540Z,4.19
2023-02-25T04:18:14.736Z,4.25
2023-02-25T04:20:41.830Z,4.26
2023-02-25T04:23:12.334Z,4.25
2023-02-25T04:25:41.118Z,4.20
2023-02-25T04:28:07.728Z,4.18
2023-02-25T04:30:34.648Z,4.05
2023-02-25T04:33:01.342Z,3.99
2023-02-25T04:35:30.693Z,3.93
2023-02-25T04:37:59.678Z,3.86
2023-02-25T04:40:26.327Z,3.76
2023-02-25T04:42:52.982Z,3.62
2023-02-25T04:45:20.593Z,3.53
2023-02-25T04:47:47.198Z,3.64
2023-02-25T04:50:16.245Z,3.55
2023-02-25T04:52:45.080Z,3.60
2023-02-25T04:55:11.706Z,3.50
2023-02-25T04:57:42.696Z,3.41
2023-02-25T05:00:16.900Z,3.37
2023-02-25T05:02:43.594Z,3.41
2023-02-25T05:05:11.213Z,3.29
2023-02-25T05:07:39.003Z,3.20
2023-02-25T05:10:07.740Z,3.25
2023-02-25T05:12:34.639Z,3.27
2023-02-25T05:15:04.037Z,3.34
2023-02-25T05:17:32.141Z,3.20
2023-02-25T05:20:01.516Z,3.22
2023-02-25T05:22:28.301Z,3.36
2023-02-25T05:24:55.075Z,3.31
2023-02-25T05:27:23.859Z,3.20
2023-02-25T05:29:51.564Z,3.23
2023-02-25T05:32:20.840Z,3.27
2023-02-25T05:34:47.604Z,3.28
2023-02-25T05:37:16.771Z,3.01
2023-02-25T05:39:45.889Z,3.26
2023-02-25T05:42:12.446Z,3.27
2023-02-25T05:44:39.016Z,3.20
2023-02-25T05:47:07.639Z,3.11
2023-02-25T05:49:34.355Z,3.08
2023-02-25T05:52:00.926Z,3.12
2023-02-25T05:54:27.543Z,3.19
2023-02-25T05:56:54.197Z,3.10
2023-02-25T05:59:20.862Z,3.05
2023-02-25T06:01:49.978Z,3.09
2023-02-25T06:04:16.868Z,3.18
2023-02-25T06:06:43.537Z,3.13
2023-02-25T06:09:10.498Z,3.10
2023-02-25T06:11:41.938Z,3.20
2023-02-25T06:14:10.915Z,3.20
2023-02-25T06:16:39.328Z,3.20
2023-02-25T06:19:09.630Z,3.15
2023-02-25T06:21:36.400Z,3.16
2023-02-25T06:24:06.418Z,3.08
2023-02-25T06:26:33.192Z,3.15
2023-02-25T06:29:02.518Z,3.08
2023-02-25T06:31:32.482Z,2.99
2023-02-25T06:33:59.149Z,3.09
2023-02-25T06:36:26.736Z,3.18
2023-02-25T06:38:55.940Z,3.17
2023-02-25T06:41:23.722Z,3.27
2023-02-25T06:43:55.370Z,3.31
2023-02-25T06:46:26.047Z,3.35
2023-02-25T06:48:57.440Z,3.25
2023-02-25T06:51:24.163Z,3.26
2023-02-25T06:53:53.416Z,3.27
2023-02-25T06:56:22.013Z,3.37
2023-02-25T06:58:49.473Z,2.86
2023-02-25T07:01:17.367Z,3.43
2023-02-25T07:03:44.430Z,3.37
2023-02-25T07:06:12.083Z,3.21
2023-02-25T07:08:41.317Z,3.37
2023-02-25T07:11:13.893Z,3.39
2023-02-25T07:13:46.012Z,3.23
2023-02-25T07:16:14.969Z,3.36
2023-02-25T07:18:45.253Z,3.39
2023-02-25T07:21:17.148Z,3.45
2023-02-25T07:23:44.998Z,3.48
2023-02-25T07:26:17.557Z,3.49
2023-02-25T07:28:45.086Z,3.40
2023-02-25T07:34:42.274Z,3.20
2023-02-25T07:37:08.902Z,3.53
2023-02-25T07:39:35.610Z,3.63
2023-02-25T07:42:04.643Z,3.65
2023-02-25T07:44:31.358Z,3.62
2023-02-25T07:46:57.981Z,3.73
2023-02-25T07:49:24.600Z,3.79
2023-02-25T07:51:53.269Z,3.77
2023-02-25T07:54:23.488Z,3.77
2023-02-25T07:56:53.578Z,3.76
2023-02-25T07:59:20.318Z,3.93
2023-02-25T08:01:49.331Z,4.28
2023-02-25T08:04:15.939Z,4.30
2023-02-25T08:06:47.584Z,4.25
2023-02-25T08:09:16.871Z,4.33
2023-02-25T08:11:44.468Z,4.32
2023-02-25T08:14:11.694Z,4.37
2023-02-25T08:16:38.786Z,4.26
2023-02-25T08:19:07.535Z,4.45
2023-02-25T08:21:35.351Z,4.49
2023-02-25T08:24:03.321Z,4.63
2023-02-25T08:26:33.000Z,4.71
2023-02-25T08:29:03.565Z,4.84
2023-02-25T08:31:43.055Z,4.96
2023-02-25T08:34:14.223Z,5.05
2023-02-25T08:36:42.923Z,5.16
2023-02-25T08:39:23.043Z,5.32
2023-02-25T08:41:50.434Z,5.48
2023-02-25T08:44:20.012Z,5.46
2023-02-25T08:46:49.747Z,5.50
2023-02-25T08:49:20.048Z,5.52
2023-02-25T08:52:53.607Z,5.50
2023-02-25T08:54:44.805Z,5.78
2023-02-25T08:57:15.846Z,6.01
2023-02-25T08:59:43.713Z,5.95
2023-02-25T09:02:16.950Z,5.89
2023-02-25T09:04:48.127Z,5.82
2023-02-25T09:07:22.811Z,5.89
2023-02-25T09:10:00.031Z,5.91
2023-02-25T09:12:28.151Z,6.11
2023-02-25T09:14:59.923Z,6.30
2023-02-25T09:17:29.057Z,6.30
2023-02-25T09:19:55.849Z,6.16
2023-02-25T09:22:22.532Z,6.25
2023-02-25T09:24:51.597Z,7.04
2023-02-25T09:27:18.286Z,6.88
2023-02-25T09:29:47.329Z,6.95
2023-02-25T09:32:20.285Z,7.03
2023-02-25T09:34:49.846Z,6.78
2023-02-25T09:37:20.792Z,6.54
2023-02-25T09:39:50.040Z,6.39
2023-02-25T09:42:25.386Z,6.28
2023-02-25T09:45:00.773Z,6.42
2023-02-25T09:47:55.759Z,6.47
2023-02-25T09:50:47.556Z,6.38
2023-02-25T09:53:27.894Z,6.35
2023-02-25T09:55:54.681Z,5.90
2023-02-25T09:58:31.691Z,6.02
2023-02-25T10:01:05.605Z,5.95
2023-02-25T10:03:48.148Z,5.96
2023-02-25T10:06:53.006Z,5.90
2023-02-25T10:09:56.714Z,6.05
2023-02-25T10:12:42.195Z,6.07
2023-02-25T10:15:21.253Z,6.16
2023-02-25T10:18:29.322Z,6.21
2023-02-25T10:21:32.915Z,6.21
2023-02-25T10:24:32.327Z,6.15
2023-02-25T10:27:11.427Z,6.09
2023-02-25T10:29:49.910Z,6.11
2023-02-25T10:32:16.617Z,6.27
2023-02-25T10:34:47.367Z,6.37
2023-02-25T10:37:41.109Z,6.58
2023-02-25T10:40:14.437Z,7.05
2023-02-25T10:42:44.855Z,7.24
2023-02-25T10:45:15.135Z,7.13
2023-02-25T10:47:47.603Z,7.23
2023-02-25T10:50:19.121Z,7.14
2023-02-25T10:52:54.562Z,7.25
2023-02-25T10:55:29.768Z,7.37
2023-02-25T10:57:57.835Z,7.28
2023-02-25T11:00:31.286Z,7.35
2023-02-25T11:03:01.483Z,7.40
2023-02-25T11:05:32.188Z,7.46
2023-02-25T11:08:00.223Z,7.45
2023-02-25T11:10:35.238Z,7.57
2023-02-25T11:13:04.148Z,7.63
2023-02-25T11:15:45.687Z,7.72
2023-02-25T11:18:50.709Z,7.66
2023-02-25T11:21:33.068Z,7.52
2023-02-25T11:24:02.871Z,7.46
2023-02-25T11:26:33.604Z,7.48
2023-02-25T11:29:05.265Z,7.45
2023-02-25T11:31:37.006Z,7.33
2023-02-25T11:34:28.863Z,7.24
2023-02-25T11:36:55.574Z,7.43
2023-02-25T11:39:27.976Z,7.69
2023-02-25T11:42:01.964Z,7.76
2023-02-25T11:44:47.582Z,7.64
2023-02-25T11:47:34.329Z,7.55
2023-02-25T11:50:29.778Z,7.53
2023-02-25T11:53:29.755Z,7.61
2023-02-25T11:55:59.835Z,7.50
2023-02-25T11:59:00.365Z,7.31
2023-02-25T12:01:45.018Z,7.42
2023-02-25T12:04:51.823Z,7.40
2023-02-25T12:07:55.340Z,7.26
2023-02-25T12:10:59.501Z,7.05
2023-02-25T12:13:51.039Z,6.66
2023-02-25T12:16:26.907Z,6.41
2023-02-25T12:19:12.010Z,6.16
2023-02-25T12:21:54.075Z,6.04
2023-02-25T12:24:29.627Z,6.03
2023-02-25T12:27:08.230Z,5.63
2023-02-25T12:29:48.130Z,5.52
2023-02-25T12:32:37.746Z,5.17
2023-02-25T12:35:27.394Z,5.60
2023-02-25T12:38:21.639Z,5.71
2023-02-25T12:41:09.709Z,5.81
2023-02-25T12:43:54.060Z,5.79
2023-02-25T12:46:49.451Z,5.61
2023-02-25T12:49:21.927Z,5.57
2023-02-25T12:52:17.573Z,5.57
2023-02-25T12:55:02.566Z,5.74
2023-02-25T12:57:41.078Z,5.86
2023-02-25T13:00:29.025Z,6.05
2023-02-25T13:03:25.906Z,6.20
2023-02-25T13:06:14.341Z,6.41
2023-02-25T13:09:01.156Z,6.41
2023-02-25T13:12:11.213Z,6.49
2023-02-25T13:15:02.841Z,6.60
2023-02-25T13:17:41.115Z,6.28
2023-02-25T13:20:50.832Z,6.78
2023-02-25T13:23:35.756Z,6.82
2023-02-25T13:26:44.087Z,6.90
2023-02-25T13:29:23.655Z,7.01
2023-02-25T13:32:12.528Z,7.20
2023-02-25T13:34:54.864Z,7.45
2023-02-25T13:38:14.907Z,7.55
2023-02-25T13:41:10.814Z,7.41
2023-02-25T13:43:43.620Z,7.20
2023-02-25T13:46:28.941Z,7.07
2023-02-25T13:49:17.239Z,7.03
2023-02-25T13:52:24.981Z,7.06
2023-02-25T13:54:57.413Z,7.09
2023-02-25T13:57:36.296Z,7.15
2023-02-25T14:00:05.220Z,7.22
2023-02-25T14:02:53.805Z,7.33
2023-02-25T14:05:53.499Z,7.37
2023-02-25T14:08:49.080Z,7.31
2023-02-25T14:11:57.787Z,7.26
2023-02-25T14:15:07.162Z,7.20
2023-02-25T14:17:59.939Z,7.08
2023-02-25T14:20:50.687Z,7.01
2023-02-25T14:23:41.788Z,6.95
2023-02-25T14:26:17.085Z,6.98
2023-02-25T14:29:07.751Z,6.94
2023-02-25T14:32:01.620Z,6.92
2023-02-25T14:35:06.357Z,7.11
2023-02-25T14:37:57.723Z,7.19
2023-02-25T14:40:58.239Z,7.36
2023-02-25T14:43:32.634Z,7.36
2023-02-25T14:46:17.396Z,7.28
2023-02-25T14:48:50.332Z,7.09
2023-02-25T14:51:34.618Z,7.07
2023-02-25T14:54:07.122Z,7.02
2023-02-25T14:57:05.528Z,7.03
2023-02-25T15:00:00.513Z,7.05
2023-02-25T15:03:09.482Z,6.95
2023-02-25T15:05:53.937Z,6.83
2023-02-25T15:08:47.633Z,6.73
2023-02-25T15:11:35.003Z,6.59
2023-02-25T15:14:08.207Z,6.58
2023-02-25T15:17:12.905Z,6.59
2023-02-25T15:19:51.633Z,6.61
2023-02-25T15:22:29.404Z,6.54
2023-02-25T15:25:21.041Z,6.63
2023-02-25T15:27:52.396Z,6.64
2023-02-25T15:30:26.988Z,6.59
2023-02-25T15:33:36.719Z,6.62
2023-02-25T15:36:16.168Z,6.80
2023-02-25T15:38:54.782Z,6.84
2023-02-25T15:41:27.034Z,6.78
2023-02-25T15:44:10.039Z,6.68
2023-02-25T15:46:37.500Z,6.59
2023-02-25T15:49:43.857Z,6.53
2023-02-25T15:52:12.102Z,6.45
2023-02-25T15:54:39.518Z,6.41
2023-02-25T15:57:12.485Z,6.37
2023-02-25T15:59:58.410Z,6.33
2023-02-25T16:02:30.592Z,6.27
2023-02-25T16:05:18.852Z,6.18
2023-02-25T16:07:53.784Z,6.10
2023-02-25T16:10:35.755Z,6.01
2023-02-25T16:13:05.252Z,5.81
2023-02-25T16:15:44.904Z,5.81
2023-02-25T16:18:46.796Z,5.82
2023-02-25T16:21:27.563Z,5.76
2023-02-25T16:27:25.859Z,5.63
2023-02-25T16:30:15.204Z,5.57
2023-02-25T16:33:09.168Z,5.50
2023-02-25T16:36:09.302Z,5.42
2023-02-25T16:38:43.821Z,5.34
2023-02-25T16:41:36.368Z,5.28
2023-02-25T16:44:05.724Z,5.22
2023-02-25T16:46:35.086Z,5.15
2023-02-25T16:49:24.824Z,5.09
2023-02-25T16:52:05.464Z,5.04
2023-02-25T16:54:44.891Z,4.97
2023-02-25T16:57:21.863Z,4.83
2023-02-25T17:00:20.820Z,4.85
2023-02-25T17:02:55.850Z,5.07
2023-02-25T17:05:34.510Z,4.90
2023-02-25T17:08:05.047Z,4.65
2023-02-25T17:10:46.922Z,4.63
2023-02-25T17:13:24.632Z,4.44
2023-02-25T17:15:57.213Z,4.52
2023-02-25T17:18:34.721Z,4.44
2023-02-25T17:21:33.865Z,4.40
2023-02-25T17:24:03.017Z,4.32
2023-02-25T17:26:31.111Z,3.96
2023-02-25T17:28:59.825Z,3.96
2023-02-25T17:31:29.697Z,4.08
2023-02-25T17:33:58.231Z,3.97
2023-02-25T17:36:34.388Z,4.05
2023-02-25T17:39:07.659Z,3.96
2023-02-25T17:41:38.473Z,3.94
2023-02-25T17:44:05.218Z,3.91
2023-02-25T17:46:37.848Z,3.84
2023-02-25T17:49:06.863Z,3.79
2023-02-25T17:51:38.935Z,3.77
2023-02-25T17:54:15.900Z,3.71
2023-02-25T17:56:45.068Z,3.67
2023-02-25T17:59:17.071Z,3.67
2023-02-25T18:01:54.216Z,3.63
2023-02-25T18:04:41.605Z,3.54
2023-02-25T18:07:30.732Z,3.53
2023-02-25T18:09:57.628Z,2.54
2023-02-25T18:12:38.005Z,3.46
2023-02-25T18:15:13.837Z,3.40
2023-02-25T18:17:41.810Z,3.28
2023-02-25T18:20:25.918Z,3.04
2023-02-25T18:22:53.622Z,2.94
2023-02-25T18:25:29.366Z,3.24
2023-02-25T18:27:58.882Z,3.20
2023-02-25T18:30:30.674Z,2.99
2023-02-25T18:32:59.310Z,3.05
2023-02-25T18:35:30.864Z,3.01
2023-02-25T18:38:07.368Z,3.04
2023-02-25T18:40:39.973Z,2.91
2023-02-25T18:43:07.309Z,2.96
2023-02-25T18:45:34.589Z,2.87
2023-02-25T18:48:01.856Z,2.88
2023-02-25T18:50:32.661Z,2.60
2023-02-25T18:53:00.577Z,2.84
2023-02-25T18:55:33.013Z,2.81
2023-02-25T18:58:01.124Z,2.62
2023-02-25T19:00:27.997Z,2.72
2023-02-25T19:03:02.255Z,2.55
2023-02-25T19:05:29.848Z,2.65
2023-02-25T19:07:57.017Z,2.51
2023-02-25T19:10:27.095Z,2.55
2023-02-25T19:13:04.475Z,2.40
2023-02-25T19:15:34.445Z,2.52
2023-02-25T19:18:03.216Z,2.47
2023-02-25T19:20:32.325Z,2.45
2023-02-25T19:22:59.039Z,2.30
2023-02-25T19:25:28.774Z,2.21
2023-02-25T19:27:56.798Z,2.13
2023-02-25T19:30:29.234Z,2.17
2023-02-25T19:33:02.828Z,2.24
2023-02-25T19:35:34.247Z,2.13
2023-02-25T19:38:04.165Z,2.15
2023-02-25T19:40:31.187Z,2.18
2023-02-25T19:43:01.026Z,2.17
2023-02-25T19:45:30.689Z,2.07
2023-02-25T19:47:59.969Z,1.80
2023-02-25T19:50:34.683Z,1.82
2023-02-25T19:53:02.720Z,1.79
2023-02-25T19:55:29.605Z,2.02
2023-02-25T19:57:56.390Z,1.98
2023-02-25T20:00:25.503Z,1.92
2023-02-25T20:02:56.289Z,1.62
2023-02-25T20:05:24.823Z,1.85
2023-02-25T20:07:51.658Z,1.68
2023-02-25T20:10:19.172Z,1.82
2023-02-25T20:12:46.931Z,1.81
2023-02-25T20:15:15.993Z,1.64
2023-02-25T20:17:44.712Z,1.76
2023-02-25T20:20:13.002Z,1.75
2023-02-25T20:22:40.372Z,1.69
2023-02-25T20:25:09.993Z,1.68
2023-02-25T20:27:39.233Z,1.70
2023-02-25T20:30:06.962Z,1.58
2023-02-25T20:32:34.219Z,1.57
2023-02-25T20:35:03.121Z,1.59
2023-02-25T20:37:33.785Z,1.50
2023-02-25T20:40:01.086Z,1.53
2023-02-25T20:42:30.367Z,1.48
2023-02-25T20:45:00.395Z,1.34
2023-02-25T20:47:29.722Z,1.34
2023-02-25T20:49:58.952Z,1.42
2023-02-25T20:52:26.919Z,1.35
2023-02-25T20:54:54.238Z,1.36
2023-02-25T20:57:28.181Z,1.20
2023-02-25T20:59:55.052Z,1.34
2023-02-25T21:02:22.360Z,1.32
2023-02-25T21:04:49.416Z,1.26
2023-02-25T21:07:18.716Z,1.21
2023-02-25T21:09:45.381Z,0.98
2023-02-25T21:12:14.433Z,1.20
2023-02-25T21:14:40.990Z,1.13
2023-02-25T21:17:09.700Z,1.16
2023-02-25T21:19:38.595Z,1.04
2023-02-25T21:22:06.765Z,1.09
2023-02-25T21:24:36.671Z,1.13
2023-02-25T21:27:06.546Z,0.98
2023-02-25T21:29:33.094Z,1.00
2023-02-25T21:31:59.796Z,1.01
2023-02-25T21:34:28.911Z,0.84
2023-02-25T21:36:58.365Z,1.02
2023-02-25T21:39:27.620Z,1.05
2023-02-25T21:41:56.628Z,0.21
2023-02-25T21:44:23.404Z,0.95
2023-02-25T21:46:52.409Z,1.12
2023-02-25T21:49:19.061Z,0.84
2023-02-25T21:51:46.032Z,1.12
2023-02-25T21:54:13.833Z,1.08
2023-02-25T21:56:40.787Z,1.04
2023-02-25T21:59:07.431Z,0.90
2023-02-25T22:01:37.395Z,0.93
2023-02-25T22:04:04.944Z,0.73
2023-02-25T22:06:31.658Z,0.62
2023-02-25T22:08:58.805Z,0.71
2023-02-25T22:11:30.892Z,0.76
2023-02-25T22:14:05.596Z,0.73
2023-02-25T22:16:32.835Z,0.58
2023-02-25T22:19:02.099Z,0.40
2023-02-25T22:21:30.719Z,0.58
2023-02-25T22:23:59.781Z,0.59
2023-02-25T22:26:32.155Z,0.70
2023-02-25T22:29:01.759Z,0.68
2023-02-25T22:31:28.887Z,0.66
2023-02-25T22:33:57.120Z,0.66
2023-02-25T22:36:27.006Z,0.57
2023-02-25T22:38:54.623Z,0.77
2023-02-25T22:41:28.038Z,0.65
2023-02-25T22:43:55.457Z,0.79
2023-02-25T22:46:26.265Z,0.73
2023-02-25T22:48:54.202Z,0.80
2023-02-25T22:51:29.662Z,0.58
2023-02-25T22:53:56.759Z,0.74
2023-02-25T22:56:26.450Z,0.72
2023-02-25T22:58:53.426Z,0.79
2023-02-25T23:01:22.279Z,0.77
2023-02-25T23:03:52.629Z,0.86
2023-02-25T23:06:34.338Z,0.86
2023-02-25T23:09:11.801Z,0.88
2023-02-25T23:11:41.898Z,0.86
2023-02-25T23:14:08.500Z,0.83
2023-02-25T23:16:41.585Z,0.71
2023-02-25T23:19:13.652Z,0.82
2023-02-25T23:21:40.233Z,0.76
2023-02-25T23:24:08.775Z,0.78
2023-02-25T23:26:40.617Z,0.77
2023-02-25T23:29:09.269Z,0.71
2023-02-25T23:31:47.055Z,0.72
2023-02-25T23:34:23.097Z,0.61
2023-02-25T23:36:50.129Z,0.72
2023-02-25T23:39:19.126Z,-0.20
2023-02-25T23:41:46.057Z,0.55
2023-02-25T23:44:16.387Z,0.69
2023-02-25T23:46:44.066Z,0.79
2023-02-25T23:49:18.219Z,0.84
2023-02-25T23:51:48.910Z,0.80
2023-02-25T23:54:19.922Z,0.90
2023-02-25T23:56:47.209Z,0.94
2023-02-25T23:59:14.313Z,0.90
